Terminal Aerodrome Forecast
Issued by NWS Denver/Boulder, CO

Home | Current Version | Previous Version | Graphics & Text | Print | Product List | Glossary On
Versions: 1 2 3 4 5 6 7 8 9 10 11 12 13 14 15 16 17 18 19 20 21 22 23 24 25 26 27 28 29 30 31 32 33 34 35 36 37 38 39 40 41 42 43 44 45 46 47 48 49 50
533
FTUS45 KBOU 050537
TAFDEN
TAF
KDEN 050537Z 0506/0612 16017KT P6SM FEW220
     FM050800 19013KT P6SM FEW220
     FM050900 23008KT P6SM FEW220
     FM051600 VRB05KT P6SM SCT220
     FM052000 11009KT P6SM FEW110 SCT220
     FM060100 14015KT P6SM SCT090 BKN150
     FM060500 17014G22KT P6SM FEW090 BKN200
     FM060900 22010KT P6SM FEW100 BKN200=

USA.gov is the U.S. government's official web portal to all federal, state and local government web resources and services.